sensor_id;sensor_type;location;lat;lon;timestamp;pressure;altitude;pressure_sealevel;temperature;humidity
62708;BME280;48769;51.624;5.886;2022-11-15T00:00:50;100699.25;;;10.72;96.63
62708;BME280;48769;51.624;5.886;2022-11-15T00:03:17;100704.19;;;10.78;96.73
62708;BME280;48769;51.624;5.886;2022-11-15T00:05:44;100701.38;;;10.81;96.61
62708;BME280;48769;51.624;5.886;2022-11-15T00:08:09;100701.22;;;10.84;96.76
62708;BME280;48769;51.624;5.886;2022-11-15T00:10:35;100706.50;;;10.84;96.54
62708;BME280;48769;51.624;5.886;2022-11-15T00:13:04;100699.59;;;10.82;96.89
62708;BME280;48769;51.624;5.886;2022-11-15T00:15:30;100696.09;;;10.81;97.21
62708;BME280;48769;51.624;5.886;2022-11-15T00:17:55;100695.94;;;10.84;97.45
62708;BME280;48769;51.624;5.886;2022-11-15T00:20:20;100693.13;;;10.87;97.68
62708;BME280;48769;51.624;5.886;2022-11-15T00:22:46;100687.06;;;10.85;97.77
62708;BME280;48769;51.624;5.886;2022-11-15T00:25:11;100687.84;;;10.87;97.71
62708;BME280;48769;51.624;5.886;2022-11-15T00:27:36;100691.09;;;10.92;97.94
62708;BME280;48769;51.624;5.886;2022-11-15T00:30:03;100697.13;;;10.94;98.03
62708;BME280;48769;51.624;5.886;2022-11-15T00:32:31;100687.50;;;10.93;97.84
62708;BME280;48769;51.624;5.886;2022-11-15T00:34:57;100682.06;;;10.96;97.90
62708;BME280;48769;51.624;5.886;2022-11-15T00:37:22;100683.50;;;11.02;97.90
62708;BME280;48769;51.624;5.886;2022-11-15T00:39:48;100678.91;;;11.06;98.09
62708;BME280;48769;51.624;5.886;2022-11-15T00:42:13;100677.94;;;11.07;97.90
62708;BME280;48769;51.624;5.886;2022-11-15T00:44:38;100682.22;;;11.09;98.06
62708;BME280;48769;51.624;5.886;2022-11-15T00:47:03;100681.38;;;11.09;98.30
62708;BME280;48769;51.624;5.886;2022-11-15T00:49:29;100673.34;;;11.10;98.68
62708;BME280;48769;51.624;5.886;2022-11-15T00:51:54;100671.53;;;11.11;98.47
62708;BME280;48769;51.624;5.886;2022-11-15T00:54:19;100659.09;;;11.13;98.88
62708;BME280;48769;51.624;5.886;2022-11-15T00:56:45;100664.38;;;11.13;99.15
62708;BME280;48769;51.624;5.886;2022-11-15T00:59:10;100668.84;;;11.12;99.11
62708;BME280;48769;51.624;5.886;2022-11-15T01:01:35;100664.22;;;11.16;98.84
62708;BME280;48769;51.624;5.886;2022-11-15T01:04:01;100656.97;;;11.19;98.85
62708;BME280;48769;51.624;5.886;2022-11-15T01:06:26;100662.41;;;11.16;98.81
62708;BME280;48769;51.624;5.886;2022-11-15T01:08:51;100660.72;;;11.15;99.16
62708;BME280;48769;51.624;5.886;2022-11-15T01:11:17;100665.91;;;11.17;99.66
62708;BME280;48769;51.624;5.886;2022-11-15T01:13:42;100666.53;;;11.22;99.75
62708;BME280;48769;51.624;5.886;2022-11-15T01:16:14;100653.97;;;11.26;99.56
62708;BME280;48769;51.624;5.886;2022-11-15T01:18:40;100659.94;;;11.29;99.49
62708;BME280;48769;51.624;5.886;2022-11-15T01:21:08;100647.47;;;11.31;99.55
62708;BME280;48769;51.624;5.886;2022-11-15T01:23:34;100650.97;;;11.32;99.66
62708;BME280;48769;51.624;5.886;2022-11-15T01:26:01;100647.66;;;11.28;100.00
62708;BME280;48769;51.624;5.886;2022-11-15T01:28:30;100653.53;;;11.33;100.00
62708;BME280;48769;51.624;5.886;2022-11-15T01:31:00;100645.59;;;11.33;100.00
62708;BME280;48769;51.624;5.886;2022-11-15T01:33:27;100649.00;;;11.35;100.00
62708;BME280;48769;51.624;5.886;2022-11-15T01:35:52;100647.09;;;11.37;100.00
62708;BME280;48769;51.624;5.886;2022-11-15T01:38:18;100633.81;;;11.39;100.00
62708;BME280;48769;51.624;5.886;2022-11-15T01:40:43;100636.34;;;11.40;100.00
62708;BME280;48769;51.624;5.886;2022-11-15T01:43:26;100634.66;;;11.39;100.00
62708;BME280;48769;51.624;5.886;2022-11-15T01:46:03;100632.97;;;11.38;100.00
62708;BME280;48769;51.624;5.886;2022-11-15T01:48:32;100625.94;;;11.37;100.00
62708;BME280;48769;51.624;5.886;2022-11-15T01:51:01;100631.22;;;11.37;100.00
62708;BME280;48769;51.624;5.886;2022-11-15T01:53:29;100634.09;;;11.34;100.00
62708;BME280;48769;51.624;5.886;2022-11-15T01:55:55;100626.16;;;11.34;100.00
62708;BME280;48769;51.624;5.886;2022-11-15T01:58:21;100632.19;;;11.36;100.00
62708;BME280;48769;51.624;5.886;2022-11-15T02:00:47;100630.31;;;11.38;100.00
62708;BME280;48769;51.624;5.886;2022-11-15T02:03:14;100631.94;;;11.41;100.00
62708;BME280;48769;51.624;5.886;2022-11-15T02:05:41;100630.13;;;11.41;100.00
62708;BME280;48769;51.624;5.886;2022-11-15T02:08:08;100627.50;;;11.41;100.00
62708;BME280;48769;51.624;5.886;2022-11-15T02:10:33;100622.44;;;11.37;100.00
62708;BME280;48769;51.624;5.886;2022-11-15T02:13:00;100620.47;;;11.40;100.00
62708;BME280;48769;51.624;5.886;2022-11-15T02:15:31;100617.75;;;11.42;100.00
62708;BME280;48769;51.624;5.886;2022-11-15T02:18:10;100622.19;;;11.41;100.00
62708;BME280;48769;51.624;5.886;2022-11-15T02:23:27;100616.75;;;11.44;100.00
62708;BME280;48769;51.624;5.886;2022-11-15T02:26:21;100614.81;;;11.46;100.00
62708;BME280;48769;51.624;5.886;2022-11-15T02:29:07;100615.59;;;11.49;100.00
62708;BME280;48769;51.624;5.886;2022-11-15T02:32:18;100612.59;;;11.55;100.00
62708;BME280;48769;51.624;5.886;2022-11-15T02:34:54;100605.22;;;11.60;100.00
62708;BME280;48769;51.624;5.886;2022-11-15T02:43:39;100602.81;;;11.71;100.00
62708;BME280;48769;51.624;5.886;2022-11-15T02:46:43;100598.34;;;11.72;100.00
62708;BME280;48769;51.624;5.886;2022-11-15T02:49:27;100595.41;;;11.76;100.00
62708;BME280;48769;51.624;5.886;2022-11-15T02:51:54;100594.22;;;11.82;100.00
62708;BME280;48769;51.624;5.886;2022-11-15T02:54:23;100594.91;;;11.85;100.00
62708;BME280;48769;51.624;5.886;2022-11-15T02:56:51;100601.53;;;11.92;100.00
62708;BME280;48769;51.624;5.886;2022-11-15T03:05:04;100581.31;;;12.06;100.00
62708;BME280;48769;51.624;5.886;2022-11-15T03:07:41;100586.00;;;12.15;100.00
62708;BME280;48769;51.624;5.886;2022-11-15T03:13:01;100582.16;;;12.35;100.00
62708;BME280;48769;51.624;5.886;2022-11-15T03:15:38;100579.56;;;12.33;100.00
62708;BME280;48769;51.624;5.886;2022-11-15T03:18:19;100578.72;;;12.33;100.00
62708;BME280;48769;51.624;5.886;2022-11-15T03:20:48;100569.94;;;12.32;100.00
62708;BME280;48769;51.624;5.886;2022-11-15T03:23:13;100571.63;;;12.33;100.00
62708;BME280;48769;51.624;5.886;2022-11-15T03:25:46;100566.53;;;12.30;100.00
62708;BME280;48769;51.624;5.886;2022-11-15T03:28:18;100570.88;;;12.31;100.00
62708;BME280;48769;51.624;5.886;2022-11-15T03:30:47;100574.47;;;12.30;100.00
62708;BME280;48769;51.624;5.886;2022-11-15T03:33:16;100573.50;;;12.31;100.00
62708;BME280;48769;51.624;5.886;2022-11-15T03:35:44;100569.94;;;12.32;100.00
62708;BME280;48769;51.624;5.886;2022-11-15T03:38:24;100575.97;;;12.34;100.00
62708;BME280;48769;51.624;5.886;2022-11-15T03:41:02;100568.13;;;12.33;100.00
62708;BME280;48769;51.624;5.886;2022-11-15T03:46:12;100570.28;;;12.40;100.00
62708;BME280;48769;51.624;5.886;2022-11-15T03:48:43;100577.50;;;12.38;100.00
62708;BME280;48769;51.624;5.886;2022-11-15T03:51:11;100579.19;;;12.39;100.00
62708;BME280;48769;51.624;5.886;2022-11-15T03:53:36;100581.72;;;12.41;100.00
62708;BME280;48769;51.624;5.886;2022-11-15T03:56:01;100578.03;;;12.44;100.00
62708;BME280;48769;51.624;5.886;2022-11-15T03:58:27;100578.41;;;12.52;100.00
62708;BME280;48769;51.624;5.886;2022-11-15T04:00:52;100579.72;;;12.59;100.00
62708;BME280;48769;51.624;5.886;2022-11-15T04:03:17;100578.78;;;12.60;100.00
62708;BME280;48769;51.624;5.886;2022-11-15T04:05:43;100580.19;;;12.66;100.00
62708;BME280;48769;51.624;5.886;2022-11-15T04:08:08;100579.22;;;12.67;100.00
62708;BME280;48769;51.624;5.886;2022-11-15T04:10:33;100580.75;;;12.71;100.00
62708;BME280;48769;51.624;5.886;2022-11-15T04:12:59;100575.34;;;12.72;100.00
62708;BME280;48769;51.624;5.886;2022-11-15T04:15:25;100579.78;;;12.72;100.00
62708;BME280;48769;51.624;5.886;2022-11-15T04:17:52;100585.94;;;12.72;100.00
62708;BME280;48769;51.624;5.886;2022-11-15T04:20:22;100587.44;;;12.76;100.00
62708;BME280;48769;51.624;5.886;2022-11-15T04:23:23;100584.78;;;12.76;100.00
62708;BME280;48769;51.624;5.886;2022-11-15T04:26:12;100583.09;;;12.75;100.00
62708;BME280;48769;51.624;5.886;2022-11-15T04:28:38;100589.03;;;12.79;100.00
62708;BME280;48769;51.624;5.886;2022-11-15T04:31:24;100586.19;;;12.82;100.00
62708;BME280;48769;51.624;5.886;2022-11-15T04:33:49;100585.16;;;12.84;100.00
62708;BME280;48769;51.624;5.886;2022-11-15T04:36:14;100583.44;;;12.83;100.00
62708;BME280;48769;51.624;5.886;2022-11-15T04:38:58;100576.44;;;12.82;100.00
62708;BME280;48769;51.624;5.886;2022-11-15T04:41:24;100589.16;;;12.77;100.00
62708;BME280;48769;51.624;5.886;2022-11-15T04:43:49;100580.44;;;12.75;100.00
62708;BME280;48769;51.624;5.886;2022-11-15T04:46:14;100585.75;;;12.75;100.00
62708;BME280;48769;51.624;5.886;2022-11-15T04:48:40;100584.88;;;12.75;100.00
62708;BME280;48769;51.624;5.886;2022-11-15T04:51:05;100587.22;;;12.79;100.00
62708;BME280;48769;51.624;5.886;2022-11-15T04:53:30;100584.59;;;12.79;100.00
62708;BME280;48769;51.624;5.886;2022-11-15T04:55:56;100574.75;;;12.81;100.00
62708;BME280;48769;51.624;5.886;2022-11-15T04:58:21;100574.75;;;12.81;100.00
62708;BME280;48769;51.624;5.886;2022-11-15T05:00:46;100573.69;;;12.84;100.00
62708;BME280;48769;51.624;5.886;2022-11-15T05:03:12;100564.88;;;12.83;100.00
62708;BME280;48769;51.624;5.886;2022-11-15T05:05:57;100563.94;;;12.84;100.00
62708;BME280;48769;51.624;5.886;2022-11-15T05:08:23;100557.78;;;12.84;100.00
62708;BME280;48769;51.624;5.886;2022-11-15T05:10:48;100565.81;;;12.82;100.00
62708;BME280;48769;51.624;5.886;2022-11-15T05:13:13;100571.13;;;12.82;100.00
62708;BME280;48769;51.624;5.886;2022-11-15T05:15:39;100564.97;;;12.82;100.00
62708;BME280;48769;51.624;5.886;2022-11-15T05:18:04;100569.44;;;12.81;100.00
62708;BME280;48769;51.624;5.886;2022-11-15T05:20:29;100563.50;;;12.78;100.00
62708;BME280;48769;51.624;5.886;2022-11-15T05:22:55;100571.53;;;12.76;100.00
62708;BME280;48769;51.624;5.886;2022-11-15T05:25:22;100574.38;;;12.73;100.00
62708;BME280;48769;51.624;5.886;2022-11-15T05:27:47;100573.66;;;12.71;100.00
62708;BME280;48769;51.624;5.886;2022-11-15T05:30:13;100571.72;;;12.73;100.00
62708;BME280;48769;51.624;5.886;2022-11-15T05:32:39;100571.06;;;12.70;100.00
62708;BME280;48769;51.624;5.886;2022-11-15T05:35:06;100570.16;;;12.71;100.00
62708;BME280;48769;51.624;5.886;2022-11-15T05:37:34;100571.72;;;12.73;100.00
62708;BME280;48769;51.624;5.886;2022-11-15T05:39:59;100562.84;;;12.74;100.00
62708;BME280;48769;51.624;5.886;2022-11-15T05:42:26;100562.84;;;12.74;100.00
62708;BME280;48769;51.624;5.886;2022-11-15T05:44:52;100561.75;;;12.77;100.00
62708;BME280;48769;51.624;5.886;2022-11-15T05:47:24;100566.66;;;12.83;100.00
62708;BME280;48769;51.624;5.886;2022-11-15T05:49:51;100558.84;;;12.81;100.00
62708;BME280;48769;51.624;5.886;2022-11-15T05:52:21;100559.69;;;12.82;100.00
62708;BME280;48769;51.624;5.886;2022-11-15T05:54:47;100551.84;;;12.80;100.00
62708;BME280;48769;51.624;5.886;2022-11-15T05:57:13;100556.19;;;12.81;100.00
62708;BME280;48769;51.624;5.886;2022-11-15T05:59:39;100557.69;;;12.85;100.00
62708;BME280;48769;51.624;5.886;2022-11-15T06:02:06;100564.59;;;12.88;100.00
62708;BME280;48769;51.624;5.886;2022-11-15T06:04:31;100562.78;;;12.89;100.00
62708;BME280;48769;51.624;5.886;2022-11-15T06:06:58;100569.03;;;12.88;100.00
62708;BME280;48769;51.624;5.886;2022-11-15T06:09:24;100565.44;;;12.89;100.00
62708;BME280;48769;51.624;5.886;2022-11-15T06:11:49;100570.72;;;12.89;100.00
62708;BME280;48769;51.624;5.886;2022-11-15T06:14:14;100568.09;;;12.89;100.00
62708;BME280;48769;51.624;5.886;2022-11-15T06:16:40;100567.13;;;12.90;100.00
62708;BME280;48769;51.624;5.886;2022-11-15T06:19:06;100565.44;;;12.89;100.00
62708;BME280;48769;51.624;5.886;2022-11-15T06:21:31;100565.44;;;12.89;100.00
62708;BME280;48769;51.624;5.886;2022-11-15T06:23:56;100561.81;;;12.90;100.00
62708;BME280;48769;51.624;5.886;2022-11-15T06:26:22;100562.78;;;12.89;100.00
62708;BME280;48769;51.624;5.886;2022-11-15T06:28:47;100560.13;;;12.89;100.00
62708;BME280;48769;51.624;5.886;2022-11-15T06:31:13;100564.78;;;12.85;100.00
62708;BME280;48769;51.624;5.886;2022-11-15T06:33:38;100562.97;;;12.85;100.00
62708;BME280;48769;51.624;5.886;2022-11-15T06:36:09;100564.66;;;12.86;100.00
62708;BME280;48769;51.624;5.886;2022-11-15T06:38:35;100569.03;;;12.88;100.00
62708;BME280;48769;51.624;5.886;2022-11-15T06:41:06;100577.84;;;12.88;100.00
62708;BME280;48769;51.624;5.886;2022-11-15T06:43:32;100569.03;;;12.88;100.00
62708;BME280;48769;51.624;5.886;2022-11-15T06:45:58;100577.00;;;12.88;100.00
62708;BME280;48769;51.624;5.886;2022-11-15T06:48:25;100574.16;;;12.91;100.00
62708;BME280;48769;51.624;5.886;2022-11-15T06:50:54;100584.75;;;12.91;100.00
62708;BME280;48769;51.624;5.886;2022-11-15T06:53:20;100593.56;;;12.91;100.00
62708;BME280;48769;51.624;5.886;2022-11-15T06:55:46;100595.16;;;12.94;100.00
62708;BME280;48769;51.624;5.886;2022-11-15T06:58:11;100612.56;;;12.98;100.00
62708;BME280;48769;51.624;5.886;2022-11-15T07:00:37;100602.91;;;12.97;100.00
62708;BME280;48769;51.624;5.886;2022-11-15T07:03:02;100611.72;;;12.97;100.00
62708;BME280;48769;51.624;5.886;2022-11-15T07:05:28;100607.25;;;12.98;100.00
62708;BME280;48769;51.624;5.886;2022-11-15T07:07:55;100610.44;;;13.03;100.00
62708;BME280;48769;51.624;5.886;2022-11-15T07:10:21;100616.63;;;13.03;100.00
62708;BME280;48769;51.624;5.886;2022-11-15T07:12:48;100613.84;;;13.05;100.00
62708;BME280;48769;51.624;5.886;2022-11-15T07:15:16;100620.84;;;13.06;100.00
62708;BME280;48769;51.624;5.886;2022-11-15T07:17:42;100613.41;;;12.98;100.00
62708;BME280;48769;51.624;5.886;2022-11-15T07:20:08;100609.78;;;12.99;100.00
62708;BME280;48769;51.624;5.886;2022-11-15T07:22:33;100608.75;;;13.02;100.00
62708;BME280;48769;51.624;5.886;2022-11-15T07:24:58;100617.47;;;13.04;100.00
62708;BME280;48769;51.624;5.886;2022-11-15T07:27:24;100621.03;;;13.03;100.00
62708;BME280;48769;51.624;5.886;2022-11-15T07:29:49;100611.97;;;13.07;100.00
62708;BME280;48769;51.624;5.886;2022-11-15T07:32:14;100615.47;;;13.07;100.00
62708;BME280;48769;51.624;5.886;2022-11-15T07:34:40;100617.06;;;13.10;100.00
62708;BME280;48769;51.624;5.886;2022-11-15T07:37:05;100624.16;;;13.09;100.00
62708;BME280;48769;51.624;5.886;2022-11-15T07:39:30;100626.72;;;13.11;100.00
62708;BME280;48769;51.624;5.886;2022-11-15T07:41:56;100627.47;;;13.13;100.00
62708;BME280;48769;51.624;5.886;2022-11-15T07:44:41;100629.16;;;13.14;100.00
62708;BME280;48769;51.624;5.886;2022-11-15T07:47:06;100630.84;;;13.15;100.00
62708;BME280;48769;51.624;5.886;2022-11-15T07:49:32;100632.34;;;13.19;100.00
62708;BME280;48769;51.624;5.886;2022-11-15T07:51:57;100635.75;;;13.21;100.00
62708;BME280;48769;51.624;5.886;2022-11-15T07:54:22;100625.47;;;13.17;100.00
62708;BME280;48769;51.624;5.886;2022-11-15T07:56:48;100627.03;;;13.19;100.00
62708;BME280;48769;51.624;5.886;2022-11-15T07:59:13;100628.75;;;13.20;100.00
62708;BME280;48769;51.624;5.886;2022-11-15T08:01:38;100619.00;;;13.21;100.00
62708;BME280;48769;51.624;5.886;2022-11-15T08:04:04;100629.69;;;13.19;100.00
62708;BME280;48769;51.624;5.886;2022-11-15T08:06:29;100627.91;;;13.20;100.00
62708;BME280;48769;51.624;5.886;2022-11-15T08:08:55;100627.28;;;13.16;100.00
62708;BME280;48769;51.624;5.886;2022-11-15T08:11:20;100632.66;;;13.15;100.00
62708;BME280;48769;51.624;5.886;2022-11-15T08:13:45;100623.88;;;13.14;100.00
62708;BME280;48769;51.624;5.886;2022-11-15T08:16:15;100623.03;;;13.14;100.00
62708;BME280;48769;51.624;5.886;2022-11-15T08:18:40;100626.41;;;13.16;100.00
62708;BME280;48769;51.624;5.886;2022-11-15T08:21:05;100630.66;;;13.18;100.00
62708;BME280;48769;51.624;5.886;2022-11-15T08:23:31;100619.69;;;13.24;100.00
62708;BME280;48769;51.624;5.886;2022-11-15T08:26:03;100620.75;;;13.35;100.00
62708;BME280;48769;51.624;5.886;2022-11-15T08:28:30;100611.88;;;13.48;100.00
62708;BME280;48769;51.624;5.886;2022-11-15T08:30:55;100627.16;;;13.45;100.00
62708;BME280;48769;51.624;5.886;2022-11-15T08:33:20;100615.06;;;13.41;100.00
62708;BME280;48769;51.624;5.886;2022-11-15T08:35:46;100620.34;;;13.41;100.00
62708;BME280;48769;51.624;5.886;2022-11-15T08:38:11;100620.75;;;13.35;100.00
62708;BME280;48769;51.624;5.886;2022-11-15T08:40:37;100630.53;;;13.34;100.00
62708;BME280;48769;51.624;5.886;2022-11-15T08:43:02;100625.44;;;13.31;100.00
62708;BME280;48769;51.624;5.886;2022-11-15T08:45:29;100627.91;;;13.20;100.00
62708;BME280;48769;51.624;5.886;2022-11-15T08:47:55;100630.84;;;13.15;100.00
62708;BME280;48769;51.624;5.886;2022-11-15T08:50:20;100624.06;;;13.11;100.00
62708;BME280;48769;51.624;5.886;2022-11-15T08:52:46;100625.75;;;13.12;100.00
62708;BME280;48769;51.624;5.886;2022-11-15T08:55:13;100625.34;;;13.18;100.00
62708;BME280;48769;51.624;5.886;2022-11-15T08:57:38;100621.97;;;13.16;100.00
62708;BME280;48769;51.624;5.886;2022-11-15T09:00:04;100621.84;;;13.18;100.00
62708;BME280;48769;51.624;5.886;2022-11-15T09:02:29;100617.19;;;13.21;100.00
62708;BME280;48769;51.624;5.886;2022-11-15T09:04:54;100614.38;;;13.24;100.00
62708;BME280;48769;51.624;5.886;2022-11-15T09:07:20;100609.63;;;13.29;100.00
62708;BME280;48769;51.624;5.886;2022-11-15T09:09:45;100592.53;;;13.33;100.00
62708;BME280;48769;51.624;5.886;2022-11-15T09:12:17;100595.00;;;13.37;100.00
62708;BME280;48769;51.624;5.886;2022-11-15T09:14:42;100595.50;;;13.42;100.00
62708;BME280;48769;51.624;5.886;2022-11-15T09:17:08;100596.38;;;13.55;100.00
62708;BME280;48769;51.624;5.886;2022-11-15T09:19:34;100601.06;;;13.64;100.00
62708;BME280;48769;51.624;5.886;2022-11-15T09:21:59;100595.09;;;13.48;100.00
62708;BME280;48769;51.624;5.886;2022-11-15T09:24:25;100587.06;;;13.49;100.00
62708;BME280;48769;51.624;5.886;2022-11-15T09:26:51;100583.03;;;13.69;100.00
62708;BME280;48769;51.624;5.886;2022-11-15T09:29:17;100584.53;;;13.86;100.00
62708;BME280;48769;51.624;5.886;2022-11-15T09:31:43;100574.97;;;13.84;100.00
62708;BME280;48769;51.624;5.886;2022-11-15T09:34:08;100582.41;;;13.91;100.00
62708;BME280;48769;51.624;5.886;2022-11-15T09:36:34;100566.91;;;13.98;100.00
62708;BME280;48769;51.624;5.886;2022-11-15T09:39:00;100572.28;;;14.09;100.00
62708;BME280;48769;51.624;5.886;2022-11-15T09:41:46;100568.34;;;14.27;100.00
62708;BME280;48769;51.624;5.886;2022-11-15T09:44:40;100556.19;;;14.97;100.00
62708;BME280;48769;51.624;5.886;2022-11-15T09:47:41;100546.53;;;15.78;98.38
62708;BME280;48769;51.624;5.886;2022-11-15T09:50:15;100546.53;;;15.78;97.90
62708;BME280;48769;51.624;5.886;2022-11-15T09:52:44;100551.63;;;16.03;97.19
62708;BME280;48769;51.624;5.886;2022-11-15T09:55:11;100540.00;;;15.71;95.31
62708;BME280;48769;51.624;5.886;2022-11-15T09:57:57;100540.59;;;15.74;94.25
62708;BME280;48769;51.624;5.886;2022-11-15T10:00:38;100535.06;;;15.42;93.64
62708;BME280;48769;51.624;5.886;2022-11-15T10:03:27;100543.25;;;16.08;88.99
62708;BME280;48769;51.624;5.886;2022-11-15T10:05:57;100528.69;;;16.89;86.28
62708;BME280;48769;51.624;5.886;2022-11-15T10:08:58;100515.34;;;16.46;81.56
62708;BME280;48769;51.624;5.886;2022-11-15T10:11:32;100519.16;;;15.98;85.39
62708;BME280;48769;51.624;5.886;2022-11-15T10:14:01;100516.00;;;16.27;85.27
62708;BME280;48769;51.624;5.886;2022-11-15T10:16:37;100521.44;;;16.36;84.88
62708;BME280;48769;51.624;5.886;2022-11-15T10:19:22;100516.28;;;15.90;84.32
62708;BME280;48769;51.624;5.886;2022-11-15T10:28:32;100504.19;;;15.86;82.10
62708;BME280;48769;51.624;5.886;2022-11-15T10:30:59;100498.81;;;15.63;79.33
62708;BME280;48769;51.624;5.886;2022-11-15T10:33:31;100488.25;;;15.62;78.58
62708;BME280;48769;51.624;5.886;2022-11-15T10:36:22;100490.84;;;15.86;76.85
62708;BME280;48769;51.624;5.886;2022-11-15T10:43:44;100475.59;;;15.77;75.95
62708;BME280;48769;51.624;5.886;2022-11-15T10:46:19;100474.84;;;15.63;76.14
62708;BME280;48769;51.624;5.886;2022-11-15T10:48:45;100475.78;;;15.51;77.30
62708;BME280;48769;51.624;5.886;2022-11-15T10:51:42;100471.97;;;15.78;76.72
62708;BME280;48769;51.624;5.886;2022-11-15T10:57:36;100459.78;;;15.29;73.79
62708;BME280;48769;51.624;5.886;2022-11-15T11:05:40;100449.88;;;15.31;77.82
62708;BME280;48769;51.624;5.886;2022-11-15T11:10:31;100444.09;;;15.48;72.80
62708;BME280;48769;51.624;5.886;2022-11-15T11:13:21;100440.94;;;15.65;70.62
62708;BME280;48769;51.624;5.886;2022-11-15T11:16:07;100439.50;;;15.84;70.26
62708;BME280;48769;51.624;5.886;2022-11-15T11:21:51;100433.44;;;15.82;66.52
62708;BME280;48769;51.624;5.886;2022-11-15T11:24:33;100422.56;;;15.85;65.98
62708;BME280;48769;51.624;5.886;2022-11-15T11:27:06;100426.63;;;16.11;67.89
62708;BME280;48769;51.624;5.886;2022-11-15T11:29:44;100429.00;;;16.26;67.74
62708;BME280;48769;51.624;5.886;2022-11-15T11:32:26;100430.50;;;16.19;66.74
62708;BME280;48769;51.624;5.886;2022-11-15T11:35:09;100426.16;;;16.06;68.35
62708;BME280;48769;51.624;5.886;2022-11-15T11:37:44;100424.19;;;16.20;67.40
62708;BME280;48769;51.624;5.886;2022-11-15T11:48:52;100386.97;;;17.03;65.65
62708;BME280;48769;51.624;5.886;2022-11-15T11:51:34;100383.03;;;16.66;64.12
62708;BME280;48769;51.624;5.886;2022-11-15T11:54:19;100379.31;;;16.57;67.03
62708;BME280;48769;51.624;5.886;2022-11-15T11:56:45;100369.78;;;16.54;67.30
62708;BME280;48769;51.624;5.886;2022-11-15T11:59:43;100368.47;;;16.70;67.18
62708;BME280;48769;51.624;5.886;2022-11-15T12:02:28;100364.78;;;16.82;66.55
62708;BME280;48769;51.624;5.886;2022-11-15T12:05:13;100356.81;;;17.13;65.51
62708;BME280;48769;51.624;5.886;2022-11-15T12:07:43;100357.16;;;16.98;65.77
62708;BME280;48769;51.624;5.886;2022-11-15T12:10:19;100346.34;;;17.31;64.01
62708;BME280;48769;51.624;5.886;2022-11-15T12:13:00;100331.28;;;17.70;59.98
62708;BME280;48769;51.624;5.886;2022-11-15T12:15:43;100323.78;;;17.94;60.59
62708;BME280;48769;51.624;5.886;2022-11-15T12:18:18;100323.22;;;18.01;60.43
62708;BME280;48769;51.624;5.886;2022-11-15T12:21:15;100308.50;;;17.66;59.83
62708;BME280;48769;51.624;5.886;2022-11-15T12:23:48;100316.53;;;17.66;61.49
62708;BME280;48769;51.624;5.886;2022-11-15T12:26:22;100308.63;;;17.64;61.46
62708;BME280;48769;51.624;5.886;2022-11-15T12:28:54;100291.94;;;17.72;59.76
62708;BME280;48769;51.624;5.886;2022-11-15T12:31:37;100280.69;;;17.68;58.41
62708;BME280;48769;51.624;5.886;2022-11-15T12:34:28;100274.88;;;17.44;59.39
62708;BME280;48769;51.624;5.886;2022-11-15T12:36:55;100277.44;;;17.55;59.24
62708;BME280;48769;51.624;5.886;2022-11-15T12:39:20;100276.75;;;17.63;57.91
62708;BME280;48769;51.624;5.886;2022-11-15T13:17:45;100223.34;;;17.03;61.22
62708;BME280;48769;51.624;5.886;2022-11-15T13:22:41;100211.09;;;16.91;61.85
62708;BME280;48769;51.624;5.886;2022-11-15T13:28:10;100204.94;;;16.69;61.25
62708;BME280;48769;51.624;5.886;2022-11-15T13:30:36;100207.94;;;16.76;63.72
62708;BME280;48769;51.624;5.886;2022-11-15T13:33:13;100205.34;;;16.65;62.92
62708;BME280;48769;51.624;5.886;2022-11-15T13:35:41;100199.75;;;16.68;64.07
62708;BME280;48769;51.624;5.886;2022-11-15T13:38:19;100197.75;;;16.70;64.28
62708;BME280;48769;51.624;5.886;2022-11-15T13:40:45;100186.47;;;16.56;64.06
62708;BME280;48769;51.624;5.886;2022-11-15T13:43:28;100170.69;;;16.44;62.81
62708;BME280;48769;51.624;5.886;2022-11-15T13:46:11;100172.38;;;16.35;63.15
62708;BME280;48769;51.624;5.886;2022-11-15T13:48:37;100172.25;;;16.16;64.21
62708;BME280;48769;51.624;5.886;2022-11-15T13:56:37;100170.94;;;15.89;64.06
62708;BME280;48769;51.624;5.886;2022-11-15T13:59:30;100165.19;;;15.84;63.69
62708;BME280;48769;51.624;5.886;2022-11-15T14:01:59;100163.41;;;15.94;65.07
62708;BME280;48769;51.624;5.886;2022-11-15T14:04:27;100154.00;;;15.90;63.98
62708;BME280;48769;51.624;5.886;2022-11-15T14:07:01;100154.69;;;15.92;63.79
62708;BME280;48769;51.624;5.886;2022-11-15T14:09:33;100148.69;;;15.90;63.20
62708;BME280;48769;51.624;5.886;2022-11-15T14:12:00;100137.50;;;15.75;62.31
62708;BME280;48769;51.624;5.886;2022-11-15T14:14:28;100138.88;;;15.70;62.16
62708;BME280;48769;51.624;5.886;2022-11-15T14:16:56;100136.66;;;15.75;61.71
62708;BME280;48769;51.624;5.886;2022-11-15T14:22:13;100127.72;;;15.64;61.83
62708;BME280;48769;51.624;5.886;2022-11-15T14:24:40;100122.25;;;15.66;62.24
62708;BME280;48769;51.624;5.886;2022-11-15T14:27:26;100118.41;;;15.70;62.01
62708;BME280;48769;51.624;5.886;2022-11-15T14:29:52;100125.31;;;15.61;61.97
62708;BME280;48769;51.624;5.886;2022-11-15T14:32:23;100113.00;;;15.60;62.27
62708;BME280;48769;51.624;5.886;2022-11-15T14:34:54;100115.75;;;15.59;62.87
62708;BME280;48769;51.624;5.886;2022-11-15T14:37:40;100111.16;;;15.61;62.20
62708;BME280;48769;51.624;5.886;2022-11-15T14:40:06;100102.59;;;15.57;62.55
62708;BME280;48769;51.624;5.886;2022-11-15T14:42:34;100093.16;;;15.53;62.52